sensor_id;sensor_type;location;lat;lon;timestamp;temperature;humidity
7143;DHT22;3613;48.902;9.204;2023-03-04T00:01:53;0.30;99.90
7143;DHT22;3613;48.902;9.204;2023-03-04T00:04:19;0.30;99.90
7143;DHT22;3613;48.902;9.204;2023-03-04T00:06:47;0.30;99.90
7143;DHT22;3613;48.902;9.204;2023-03-04T00:09:12;0.30;99.90
7143;DHT22;3613;48.902;9.204;2023-03-04T00:11:38;0.20;99.90
7143;DHT22;3613;48.902;9.204;2023-03-04T00:14:06;0.20;99.90
7143;DHT22;3613;48.902;9.204;2023-03-04T00:16:32;0.20;99.90
7143;DHT22;3613;48.902;9.204;2023-03-04T00:19:02;0.20;99.90
7143;DHT22;3613;48.902;9.204;2023-03-04T00:21:27;0.10;99.90
7143;DHT22;3613;48.902;9.204;2023-03-04T00:23:53;0.10;99.90
7143;DHT22;3613;48.902;9.204;2023-03-04T00:26:19;0.70;99.90
7143;DHT22;3613;48.902;9.204;2023-03-04T00:28:47;0.00;99.90
7143;DHT22;3613;48.902;9.204;2023-03-04T00:31:14;0.00;99.90
7143;DHT22;3613;48.902;9.204;2023-03-04T00:33:40;0.00;99.90
7143;DHT22;3613;48.902;9.204;2023-03-04T00:36:09;-0.10;99.90
7143;DHT22;3613;48.902;9.204;2023-03-04T00:38:35;-0.10;99.90
7143;DHT22;3613;48.902;9.204;2023-03-04T00:41:01;-0.10;99.90
7143;DHT22;3613;48.902;9.204;2023-03-04T00:43:27;-0.10;99.90
7143;DHT22;3613;48.902;9.204;2023-03-04T00:45:55;-0.20;99.90
7143;DHT22;3613;48.902;9.204;2023-03-04T00:48:21;-0.20;99.90
7143;DHT22;3613;48.902;9.204;2023-03-04T00:50:47;-0.20;99.90
7143;DHT22;3613;48.902;9.204;2023-03-04T00:53:16;-0.20;99.90
7143;DHT22;3613;48.902;9.204;2023-03-04T00:55:41;-0.20;99.90
7143;DHT22;3613;48.902;9.204;2023-03-04T00:58:07;-0.30;99.90
7143;DHT22;3613;48.902;9.204;2023-03-04T01:00:32;-0.30;99.90
7143;DHT22;3613;48.902;9.204;2023-03-04T01:02:58;-0.30;99.90
7143;DHT22;3613;48.902;9.204;2023-03-04T01:05:27;-0.30;99.90
7143;DHT22;3613;48.902;9.204;2023-03-04T01:07:56;-0.30;99.90
7143;DHT22;3613;48.902;9.204;2023-03-04T01:10:21;-0.40;99.90
7143;DHT22;3613;48.902;9.204;2023-03-04T01:12:47;-0.50;99.90
7143;DHT22;3613;48.902;9.204;2023-03-04T01:15:13;-0.50;99.90
7143;DHT22;3613;48.902;9.204;2023-03-04T01:17:41;-0.60;99.90
7143;DHT22;3613;48.902;9.204;2023-03-04T01:20:08;-0.60;99.90
7143;DHT22;3613;48.902;9.204;2023-03-04T01:22:34;-0.60;99.90
7143;DHT22;3613;48.902;9.204;2023-03-04T01:25:00;-0.60;99.90
7143;DHT22;3613;48.902;9.204;2023-03-04T01:27:28;-0.60;99.90
7143;DHT22;3613;48.902;9.204;2023-03-04T01:29:53;-0.60;99.90
7143;DHT22;3613;48.902;9.204;2023-03-04T01:32:21;-0.60;99.90
7143;DHT22;3613;48.902;9.204;2023-03-04T01:34:49;-0.70;99.90
7143;DHT22;3613;48.902;9.204;2023-03-04T01:37:15;-0.70;99.90
7143;DHT22;3613;48.902;9.204;2023-03-04T01:39:43;-0.70;99.90
7143;DHT22;3613;48.902;9.204;2023-03-04T01:42:20;-0.80;99.90
7143;DHT22;3613;48.902;9.204;2023-03-04T01:44:50;-0.80;99.90
7143;DHT22;3613;48.902;9.204;2023-03-04T01:47:21;-0.80;99.90
7143;DHT22;3613;48.902;9.204;2023-03-04T01:49:54;-0.90;99.90
7143;DHT22;3613;48.902;9.204;2023-03-04T01:52:21;-0.90;99.90
7143;DHT22;3613;48.902;9.204;2023-03-04T01:54:47;-0.90;99.90
7143;DHT22;3613;48.902;9.204;2023-03-04T01:57:18;-0.90;99.90
7143;DHT22;3613;48.902;9.204;2023-03-04T01:59:44;-0.90;99.90
7143;DHT22;3613;48.902;9.204;2023-03-04T02:02:10;-0.90;99.90
7143;DHT22;3613;48.902;9.204;2023-03-04T02:04:36;-0.90;99.90
7143;DHT22;3613;48.902;9.204;2023-03-04T02:07:03;-0.90;99.90
7143;DHT22;3613;48.902;9.204;2023-03-04T02:09:33;-0.90;99.90
7143;DHT22;3613;48.902;9.204;2023-03-04T02:12:00;-0.90;99.90
7143;DHT22;3613;48.902;9.204;2023-03-04T02:14:28;-1.00;99.90
7143;DHT22;3613;48.902;9.204;2023-03-04T02:16:54;-0.90;99.90
7143;DHT22;3613;48.902;9.204;2023-03-04T02:20:11;-1.00;99.90
7143;DHT22;3613;48.902;9.204;2023-03-04T02:25:43;-1.00;99.90
7143;DHT22;3613;48.902;9.204;2023-03-04T02:28:09;-1.00;99.90
7143;DHT22;3613;48.902;9.204;2023-03-04T02:30:35;-1.00;99.90
7143;DHT22;3613;48.902;9.204;2023-03-04T02:33:03;-1.10;99.90
7143;DHT22;3613;48.902;9.204;2023-03-04T02:35:31;-1.10;99.90
7143;DHT22;3613;48.902;9.204;2023-03-04T02:37:57;-1.10;99.90
7143;DHT22;3613;48.902;9.204;2023-03-04T02:40:29;-1.20;99.90
7143;DHT22;3613;48.902;9.204;2023-03-04T02:42:58;-1.20;99.90
7143;DHT22;3613;48.902;9.204;2023-03-04T02:45:42;-1.20;99.90
7143;DHT22;3613;48.902;9.204;2023-03-04T02:48:19;-1.20;99.90
7143;DHT22;3613;48.902;9.204;2023-03-04T02:50:51;-1.20;99.90
7143;DHT22;3613;48.902;9.204;2023-03-04T02:53:19;-1.20;99.90
7143;DHT22;3613;48.902;9.204;2023-03-04T02:55:48;-1.30;99.90
7143;DHT22;3613;48.902;9.204;2023-03-04T02:58:16;-1.20;99.90
7143;DHT22;3613;48.902;9.204;2023-03-04T03:00:42;-1.30;99.90
7143;DHT22;3613;48.902;9.204;2023-03-04T03:03:08;-1.30;99.90
7143;DHT22;3613;48.902;9.204;2023-03-04T03:05:34;-1.30;99.90
7143;DHT22;3613;48.902;9.204;2023-03-04T03:08:00;-1.30;99.90
7143;DHT22;3613;48.902;9.204;2023-03-04T03:10:26;-1.40;99.90
7143;DHT22;3613;48.902;9.204;2023-03-04T03:12:52;-1.40;99.90
7143;DHT22;3613;48.902;9.204;2023-03-04T03:15:20;-1.30;99.90
7143;DHT22;3613;48.902;9.204;2023-03-04T03:17:45;-1.30;99.90
7143;DHT22;3613;48.902;9.204;2023-03-04T03:20:15;-1.30;99.90
7143;DHT22;3613;48.902;9.204;2023-03-04T03:22:43;-1.30;99.90
7143;DHT22;3613;48.902;9.204;2023-03-04T03:25:10;-1.30;99.90
7143;DHT22;3613;48.902;9.204;2023-03-04T03:27:35;-1.40;99.90
7143;DHT22;3613;48.902;9.204;2023-03-04T03:30:04;-1.40;99.90
7143;DHT22;3613;48.902;9.204;2023-03-04T03:32:32;-1.40;99.90
7143;DHT22;3613;48.902;9.204;2023-03-04T03:34:58;-1.50;99.90
7143;DHT22;3613;48.902;9.204;2023-03-04T03:37:24;-1.50;99.90
7143;DHT22;3613;48.902;9.204;2023-03-04T03:39:49;-1.50;99.90
7143;DHT22;3613;48.902;9.204;2023-03-04T03:42:15;-1.50;99.90
7143;DHT22;3613;48.902;9.204;2023-03-04T03:44:43;-1.60;99.90
7143;DHT22;3613;48.902;9.204;2023-03-04T03:47:13;-1.60;99.90
7143;DHT22;3613;48.902;9.204;2023-03-04T03:49:41;-1.60;99.90
7143;DHT22;3613;48.902;9.204;2023-03-04T03:52:11;-1.60;99.90
7143;DHT22;3613;48.902;9.204;2023-03-04T03:54:37;-1.70;99.90
7143;DHT22;3613;48.902;9.204;2023-03-04T03:57:03;-1.20;99.90
7143;DHT22;3613;48.902;9.204;2023-03-04T03:59:29;-1.70;99.90
7143;DHT22;3613;48.902;9.204;2023-03-04T04:01:54;-1.70;99.90
7143;DHT22;3613;48.902;9.204;2023-03-04T04:04:20;-1.70;99.90
7143;DHT22;3613;48.902;9.204;2023-03-04T04:06:48;-1.80;99.90
7143;DHT22;3613;48.902;9.204;2023-03-04T04:09:13;-1.80;99.90
7143;DHT22;3613;48.902;9.204;2023-03-04T04:11:39;-1.80;99.90
7143;DHT22;3613;48.902;9.204;2023-03-04T04:14:09;-1.80;99.90
7143;DHT22;3613;48.902;9.204;2023-03-04T04:16:38;-1.80;99.90
7143;DHT22;3613;48.902;9.204;2023-03-04T04:19:04;-1.80;99.90
7143;DHT22;3613;48.902;9.204;2023-03-04T04:21:32;-1.80;99.90
7143;DHT22;3613;48.902;9.204;2023-03-04T04:23:58;-1.90;99.90
7143;DHT22;3613;48.902;9.204;2023-03-04T04:26:24;-1.90;99.90
7143;DHT22;3613;48.902;9.204;2023-03-04T04:28:52;-1.90;99.90
7143;DHT22;3613;48.902;9.204;2023-03-04T04:31:17;-1.90;99.90
7143;DHT22;3613;48.902;9.204;2023-03-04T04:33:47;-2.00;99.90
7143;DHT22;3613;48.902;9.204;2023-03-04T04:36:15;-2.00;99.90
7143;DHT22;3613;48.902;9.204;2023-03-04T04:38:42;-0.30;99.90
7143;DHT22;3613;48.902;9.204;2023-03-04T04:41:43;-2.00;99.90
7143;DHT22;3613;48.902;9.204;2023-03-04T04:44:10;-2.10;99.90
7143;DHT22;3613;48.902;9.204;2023-03-04T04:46:36;-2.10;99.90
7143;DHT22;3613;48.902;9.204;2023-03-04T04:49:05;-2.10;99.90
7143;DHT22;3613;48.902;9.204;2023-03-04T04:51:34;-0.50;99.90
7143;DHT22;3613;48.902;9.204;2023-03-04T04:54:00;-2.20;99.90
7143;DHT22;3613;48.902;9.204;2023-03-04T04:56:27;-2.20;99.90
7143;DHT22;3613;48.902;9.204;2023-03-04T04:58:58;-2.20;99.90
7143;DHT22;3613;48.902;9.204;2023-03-04T05:01:27;-2.20;99.90
7143;DHT22;3613;48.902;9.204;2023-03-04T05:03:53;-2.20;99.90
7143;DHT22;3613;48.902;9.204;2023-03-04T05:06:20;-2.20;99.90
7143;DHT22;3613;48.902;9.204;2023-03-04T05:08:49;-2.20;99.90
7143;DHT22;3613;48.902;9.204;2023-03-04T05:11:15;-2.20;99.90
7143;DHT22;3613;48.902;9.204;2023-03-04T05:13:41;-2.20;99.90
7143;DHT22;3613;48.902;9.204;2023-03-04T05:16:07;-2.20;99.90
7143;DHT22;3613;48.902;9.204;2023-03-04T05:18:33;-2.30;99.90
7143;DHT22;3613;48.902;9.204;2023-03-04T05:21:01;-2.30;99.90
7143;DHT22;3613;48.902;9.204;2023-03-04T05:23:31;-2.30;99.90
7143;DHT22;3613;48.902;9.204;2023-03-04T05:25:57;-2.30;99.90
7143;DHT22;3613;48.902;9.204;2023-03-04T05:28:22;-2.30;99.90
7143;DHT22;3613;48.902;9.204;2023-03-04T05:30:50;-2.20;99.90
7143;DHT22;3613;48.902;9.204;2023-03-04T05:33:17;-2.30;99.90
7143;DHT22;3613;48.902;9.204;2023-03-04T05:35:44;-2.20;99.90
7143;DHT22;3613;48.902;9.204;2023-03-04T05:38:15;-2.20;99.90
7143;DHT22;3613;48.902;9.204;2023-03-04T05:40:45;-2.10;99.90
7143;DHT22;3613;48.902;9.204;2023-03-04T05:43:14;-2.20;99.90
7143;DHT22;3613;48.902;9.204;2023-03-04T05:45:41;-2.20;99.90
7143;DHT22;3613;48.902;9.204;2023-03-04T05:48:09;-2.20;99.90
7143;DHT22;3613;48.902;9.204;2023-03-04T05:50:35;-2.20;99.90
7143;DHT22;3613;48.902;9.204;2023-03-04T05:53:01;-2.20;99.90
7143;DHT22;3613;48.902;9.204;2023-03-04T05:55:26;-2.20;99.90
7143;DHT22;3613;48.902;9.204;2023-03-04T05:57:54;-2.30;99.90
7143;DHT22;3613;48.902;9.204;2023-03-04T06:00:22;-2.30;99.90
7143;DHT22;3613;48.902;9.204;2023-03-04T06:02:50;-2.40;99.90
7143;DHT22;3613;48.902;9.204;2023-03-04T06:05:19;-2.40;99.90
7143;DHT22;3613;48.902;9.204;2023-03-04T06:07:45;-2.30;99.90
7143;DHT22;3613;48.902;9.204;2023-03-04T06:10:16;-2.40;99.90
7143;DHT22;3613;48.902;9.204;2023-03-04T06:12:42;-2.30;99.90
7143;DHT22;3613;48.902;9.204;2023-03-04T06:15:08;-2.20;99.90
7143;DHT22;3613;48.902;9.204;2023-03-04T06:17:38;-2.20;99.90
7143;DHT22;3613;48.902;9.204;2023-03-04T06:20:04;-2.10;99.90
7143;DHT22;3613;48.902;9.204;2023-03-04T06:22:33;-2.10;99.90
7143;DHT22;3613;48.902;9.204;2023-03-04T06:24:59;-2.10;99.90
7143;DHT22;3613;48.902;9.204;2023-03-04T06:27:25;-0.20;99.90
7143;DHT22;3613;48.902;9.204;2023-03-04T06:29:53;-2.00;99.90
7143;DHT22;3613;48.902;9.204;2023-03-04T06:32:19;-1.90;99.90
7143;DHT22;3613;48.902;9.204;2023-03-04T06:34:45;-1.90;99.90
7143;DHT22;3613;48.902;9.204;2023-03-04T06:37:10;-1.90;99.90
7143;DHT22;3613;48.902;9.204;2023-03-04T06:39:36;-1.80;99.90
7143;DHT22;3613;48.902;9.204;2023-03-04T06:42:02;-1.70;99.90
7143;DHT22;3613;48.902;9.204;2023-03-04T06:44:28;-1.50;99.90
7143;DHT22;3613;48.902;9.204;2023-03-04T06:46:53;-1.30;99.90
7143;DHT22;3613;48.902;9.204;2023-03-04T06:49:20;-1.20;99.90
7143;DHT22;3613;48.902;9.204;2023-03-04T06:51:48;-1.20;99.90
7143;DHT22;3613;48.902;9.204;2023-03-04T06:54:14;-1.00;99.90
7143;DHT22;3613;48.902;9.204;2023-03-04T06:56:42;-0.90;99.90
7143;DHT22;3613;48.902;9.204;2023-03-04T06:59:10;-0.80;99.90
7143;DHT22;3613;48.902;9.204;2023-03-04T07:01:35;-0.80;99.90
7143;DHT22;3613;48.902;9.204;2023-03-04T07:04:02;0.90;99.90
7143;DHT22;3613;48.902;9.204;2023-03-04T07:06:28;-0.70;99.90
7143;DHT22;3613;48.902;9.204;2023-03-04T07:08:57;-0.50;99.90
7143;DHT22;3613;48.902;9.204;2023-03-04T07:11:23;-0.20;99.90
7143;DHT22;3613;48.902;9.204;2023-03-04T07:13:49;-0.10;99.90
7143;DHT22;3613;48.902;9.204;2023-03-04T07:16:18;0.00;99.90
7143;DHT22;3613;48.902;9.204;2023-03-04T07:18:44;0.20;99.90
7143;DHT22;3613;48.902;9.204;2023-03-04T07:21:11;0.20;99.90
7143;DHT22;3613;48.902;9.204;2023-03-04T07:23:37;0.20;99.90
7143;DHT22;3613;48.902;9.204;2023-03-04T07:26:04;0.30;99.90
7143;DHT22;3613;48.902;9.204;2023-03-04T07:28:30;0.40;99.90
7143;DHT22;3613;48.902;9.204;2023-03-04T07:30:55;0.50;99.90
7143;DHT22;3613;48.902;9.204;2023-03-04T07:33:21;0.60;99.90
7143;DHT22;3613;48.902;9.204;2023-03-04T07:35:47;0.60;99.90
7143;DHT22;3613;48.902;9.204;2023-03-04T07:38:16;0.60;99.90
7143;DHT22;3613;48.902;9.204;2023-03-04T07:40:41;0.70;99.90
7143;DHT22;3613;48.902;9.204;2023-03-04T07:43:09;0.80;99.90
7143;DHT22;3613;48.902;9.204;2023-03-04T07:45:36;0.80;99.90
7143;DHT22;3613;48.902;9.204;2023-03-04T07:48:01;0.90;99.90
7143;DHT22;3613;48.902;9.204;2023-03-04T07:50:29;0.90;99.90
7143;DHT22;3613;48.902;9.204;2023-03-04T07:52:55;0.90;99.90
7143;DHT22;3613;48.902;9.204;2023-03-04T07:55:23;1.00;99.90
7143;DHT22;3613;48.902;9.204;2023-03-04T07:57:51;1.10;99.90
7143;DHT22;3613;48.902;9.204;2023-03-04T08:00:19;1.10;99.90
7143;DHT22;3613;48.902;9.204;2023-03-04T08:02:45;1.20;99.90
7143;DHT22;3613;48.902;9.204;2023-03-04T08:05:11;1.30;99.90
7143;DHT22;3613;48.902;9.204;2023-03-04T08:07:37;1.30;99.90
7143;DHT22;3613;48.902;9.204;2023-03-04T08:10:03;1.30;99.90
7143;DHT22;3613;48.902;9.204;2023-03-04T08:12:29;1.40;99.90
7143;DHT22;3613;48.902;9.204;2023-03-04T08:14:54;1.40;99.90
7143;DHT22;3613;48.902;9.204;2023-03-04T08:17:20;1.40;99.90
7143;DHT22;3613;48.902;9.204;2023-03-04T08:19:46;1.50;99.90
7143;DHT22;3613;48.902;9.204;2023-03-04T08:22:15;1.50;99.90
7143;DHT22;3613;48.902;9.204;2023-03-04T08:24:41;1.50;99.90
7143;DHT22;3613;48.902;9.204;2023-03-04T08:27:06;1.50;99.90
7143;DHT22;3613;48.902;9.204;2023-03-04T08:29:32;1.60;99.90
7143;DHT22;3613;48.902;9.204;2023-03-04T08:31:58;1.80;99.90
7143;DHT22;3613;48.902;9.204;2023-03-04T08:34:27;1.90;99.90
7143;DHT22;3613;48.902;9.204;2023-03-04T08:36:53;2.00;99.90
7143;DHT22;3613;48.902;9.204;2023-03-04T08:39:19;2.20;99.90
7143;DHT22;3613;48.902;9.204;2023-03-04T08:41:47;2.20;99.90
7143;DHT22;3613;48.902;9.204;2023-03-04T08:44:13;2.40;99.90
7143;DHT22;3613;48.902;9.204;2023-03-04T08:46:41;2.50;99.90
7143;DHT22;3613;48.902;9.204;2023-03-04T08:49:09;2.50;99.90
7143;DHT22;3613;48.902;9.204;2023-03-04T08:51:37;2.60;99.90
7143;DHT22;3613;48.902;9.204;2023-03-04T08:54:03;2.60;99.90
7143;DHT22;3613;48.902;9.204;2023-03-04T08:56:29;2.70;99.90
7143;DHT22;3613;48.902;9.204;2023-03-04T08:58:58;2.80;99.90
7143;DHT22;3613;48.902;9.204;2023-03-04T09:01:26;2.90;99.90
7143;DHT22;3613;48.902;9.204;2023-03-04T09:03:51;3.10;99.90
7143;DHT22;3613;48.902;9.204;2023-03-04T09:06:20;3.10;99.90
7143;DHT22;3613;48.902;9.204;2023-03-04T09:08:46;3.40;99.90
7143;DHT22;3613;48.902;9.204;2023-03-04T09:11:16;3.40;99.90
7143;DHT22;3613;48.902;9.204;2023-03-04T09:13:47;3.30;99.90
7143;DHT22;3613;48.902;9.204;2023-03-04T09:16:14;3.30;99.90
7143;DHT22;3613;48.902;9.204;2023-03-04T09:18:42;3.40;99.90
7143;DHT22;3613;48.902;9.204;2023-03-04T09:21:09;3.50;99.90
7143;DHT22;3613;48.902;9.204;2023-03-04T09:23:38;3.60;99.90
7143;DHT22;3613;48.902;9.204;2023-03-04T09:26:15;3.70;99.90
7143;DHT22;3613;48.902;9.204;2023-03-04T09:28:43;3.70;99.90
7143;DHT22;3613;48.902;9.204;2023-03-04T09:31:13;3.70;99.90
7143;DHT22;3613;48.902;9.204;2023-03-04T09:33:39;3.80;99.90
7143;DHT22;3613;48.902;9.204;2023-03-04T09:36:07;4.00;99.90
7143;DHT22;3613;48.902;9.204;2023-03-04T09:38:35;4.00;99.90
7143;DHT22;3613;48.902;9.204;2023-03-04T09:41:19;4.00;99.90
7143;DHT22;3613;48.902;9.204;2023-03-04T09:43:48;4.10;99.90
7143;DHT22;3613;48.902;9.204;2023-03-04T09:46:21;4.10;99.90
7143;DHT22;3613;48.902;9.204;2023-03-04T09:48:51;4.20;99.90
7143;DHT22;3613;48.902;9.204;2023-03-04T09:56:37;4.70;99.90
7143;DHT22;3613;48.902;9.204;2023-03-04T09:59:27;4.80;99.90
7143;DHT22;3613;48.902;9.204;2023-03-04T10:01:58;4.90;99.90
7143;DHT22;3613;48.902;9.204;2023-03-04T10:04:43;5.10;99.90
7143;DHT22;3613;48.902;9.204;2023-03-04T10:07:18;5.30;99.90
7143;DHT22;3613;48.902;9.204;2023-03-04T10:10:05;5.40;99.90
7143;DHT22;3613;48.902;9.204;2023-03-04T10:12:33;5.40;99.90
7143;DHT22;3613;48.902;9.204;2023-03-04T10:15:05;5.40;99.90
7143;DHT22;3613;48.902;9.204;2023-03-04T10:17:37;5.40;99.90
7143;DHT22;3613;48.902;9.204;2023-03-04T10:20:17;5.50;99.90
7143;DHT22;3613;48.902;9.204;2023-03-04T10:22:46;5.60;99.90
7143;DHT22;3613;48.902;9.204;2023-03-04T10:25:23;5.50;99.90
7143;DHT22;3613;48.902;9.204;2023-03-04T10:33:26;5.00;99.90
7143;DHT22;3613;48.902;9.204;2023-03-04T10:38:30;4.70;99.90
7143;DHT22;3613;48.902;9.204;2023-03-04T10:40:57;4.80;99.90
7143;DHT22;3613;48.902;9.204;2023-03-04T10:43:23;4.70;99.90
7143;DHT22;3613;48.902;9.204;2023-03-04T10:45:54;4.70;99.90
7143;DHT22;3613;48.902;9.204;2023-03-04T10:48:26;4.90;99.90
7143;DHT22;3613;48.902;9.204;2023-03-04T10:50:52;5.00;99.90
7143;DHT22;3613;48.902;9.204;2023-03-04T10:53:27;4.90;99.90
7143;DHT22;3613;48.902;9.204;2023-03-04T10:55:56;4.90;99.90
7143;DHT22;3613;48.902;9.204;2023-03-04T10:58:22;4.90;99.90
7143;DHT22;3613;48.902;9.204;2023-03-04T11:01:09;5.00;99.90
7143;DHT22;3613;48.902;9.204;2023-03-04T11:03:46;5.10;99.90
7143;DHT22;3613;48.902;9.204;2023-03-04T11:08:56;4.80;99.90
7143;DHT22;3613;48.902;9.204;2023-03-04T11:11:40;4.50;99.90
7143;DHT22;3613;48.902;9.204;2023-03-04T11:16:58;4.60;99.90
7143;DHT22;3613;48.902;9.204;2023-03-04T11:19:30;4.80;99.90
7143;DHT22;3613;48.902;9.204;2023-03-04T11:22:00;4.60;99.90
7143;DHT22;3613;48.902;9.204;2023-03-04T11:24:27;4.50;99.90
7143;DHT22;3613;48.902;9.204;2023-03-04T11:27:23;4.50;99.90
7143;DHT22;3613;48.902;9.204;2023-03-04T11:29:57;4.40;99.90
7143;DHT22;3613;48.902;9.204;2023-03-04T11:32:32;4.40;99.90
7143;DHT22;3613;48.902;9.204;2023-03-04T11:35:06;4.40;99.90
7143;DHT22;3613;48.902;9.204;2023-03-04T11:37:49;4.50;99.90
7143;DHT22;3613;48.902;9.204;2023-03-04T11:43:09;4.60;99.90
7143;DHT22;3613;48.902;9.204;2023-03-04T11:54:25;4.40;99.90
7143;DHT22;3613;48.902;9.204;2023-03-04T12:02:21;4.00;99.90
7143;DHT22;3613;48.902;9.204;2023-03-04T12:27:49;4.30;99.90
7143;DHT22;3613;48.902;9.204;2023-03-04T12:40:48;4.00;99.90
7143;DHT22;3613;48.902;9.204;2023-03-04T12:43:46;4.10;99.90
7143;DHT22;3613;48.902;9.204;2023-03-04T12:46:46;4.10;99.90
7143;DHT22;3613;48.902;9.204;2023-03-04T12:52:05;4.20;99.90
7143;DHT22;3613;48.902;9.204;2023-03-04T12:54:39;4.20;99.90
7143;DHT22;3613;48.902;9.204;2023-03-04T12:57:13;4.40;99.90
7143;DHT22;3613;48.902;9.204;2023-03-04T13:00:04;4.20;99.90
7143;DHT22;3613;48.902;9.204;2023-03-04T13:14:22;4.30;99.90
7143;DHT22;3613;48.902;9.204;2023-03-04T13:16:58;4.30;99.90
7143;DHT22;3613;48.902;9.204;2023-03-04T13:19:46;4.60;99.90
7143;DHT22;3613;48.902;9.204;2023-03-04T13:22:51;4.50;99.90
7143;DHT22;3613;48.902;9.204;2023-03-04T13:43:42;4.40;99.90
7143;DHT22;3613;48.902;9.204;2023-03-04T13:51:28;4.20;99.90
7143;DHT22;3613;48.902;9.204;2023-03-04T13:59:09;4.10;99.90
7143;DHT22;3613;48.902;9.204;2023-03-04T14:04:20;3.80;99.90
7143;DHT22;3613;48.902;9.204;2023-03-04T14:06:49;3.70;99.90
7143;DHT22;3613;48.902;9.204;2023-03-04T14:09:19;4.40;99.90
7143;DHT22;3613;48.902;9.204;2023-03-04T14:11:46;3.90;99.90
7143;DHT22;3613;48.902;9.204;2023-03-04T14:14:17;4.00;99.90
7143;DHT22;3613;48.902;9.204;2023-03-04T14:19:23;4.00;99.90
7143;DHT22;3613;48.902;9.204;2023-03-04T14:21:49;4.00;99.90
7143;DHT22;3613;48.902;9.204;2023-03-04T14:24:18;3.80;99.90
7143;DHT22;3613;48.902;9.204;2023-03-04T14:26:44;3.90;99.90
7143;DHT22;3613;48.902;9.204;2023-03-04T14:29:25;3.90;99.90
7143;DHT22;3613;48.902;9.204;2023-03-04T14:31:52;3.90;99.90
7143;DHT22;3613;48.902;9.204;2023-03-04T14:34:30;3.90;99.90
7143;DHT22;3613;48.902;9.204;2023-03-04T14:36:58;3.60;99.90
7143;DHT22;3613;48.902;9.204;2023-03-04T14:39:26;3.60;99.90
7143;DHT22;3613;48.902;9.204;2023-03-04T14:42:02;3.60;99.90
7143;DHT22;3613;48.902;9.204;2023-03-04T14:44:33;3.70;99.90
7143;DHT22;3613;48.902;9.204;2023-03-04T14:49:53;3.70;99.90
7143;DHT22;3613;48.902;9.204;2023-03-04T14:52:48;3.60;99.90
7143;DHT22;3613;48.902;9.204;2023-03-04T14:55:21;3.40;99.90
7143;DHT22;3613;48.902;9.204;2023-03-04T14:57:49;3.50;99.90
7143;DHT22;3613;48.902;9.204;2023-03-04T15:00:31;3.60;99.90
7143;DHT22;3613;48.902;9.204;2023-03-04T15:03:14;3.70;99.90
7143;DHT22;3613;48.902;9.204;2023-03-04T15:05:43;3.50;99.90
7143;DHT22;3613;48.902;9.204;2023-03-04T15:08:23;3.50;99.90
7143;DHT22;3613;48.902;9.204;2023-03-04T15:10:55;3.50;99.90
7143;DHT22;3613;48.902;9.204;2023-03-04T15:13:40;3.60;99.90
7143;DHT22;3613;48.902;9.204;2023-03-04T15:16:07;3.70;99.90
7143;DHT22;3613;48.902;9.204;2023-03-04T15:18:33;3.70;99.90
7143;DHT22;3613;48.902;9.204;2023-03-04T15:23:47;3.70;99.90
7143;DHT22;3613;48.902;9.204;2023-03-04T15:26:13;3.40;99.90
7143;DHT22;3613;48.902;9.204;2023-03-04T15:28:42;3.50;99.90
7143;DHT22;3613;48.902;9.204;2023-03-04T15:31:21;3.60;99.90
7143;DHT22;3613;48.902;9.204;2023-03-04T15:33:47;3.60;99.90
7143;DHT22;3613;48.902;9.204;2023-03-04T15:36:21;3.60;99.90
7143;DHT22;3613;48.902;9.204;2023-03-04T15:38:51;3.60;99.90
7143;DHT22;3613;48.902;9.204;2023-03-04T15:41:24;3.70;99.90
7143;DHT22;3613;48.902;9.204;2023-03-04T15:43:52;3.70;99.90
7143;DHT22;3613;48.902;9.204;2023-03-04T15:46:20;3.70;99.90
7143;DHT22;3613;48.902;9.204;2023-03-04T15:48:47;3.70;99.90
7143;DHT22;3613;48.902;9.204;2023-03-04T15:51:20;3.70;99.90
7143;DHT22;3613;48.902;9.204;2023-03-04T15:53:49;3.70;99.90
7143;DHT22;3613;48.902;9.204;2023-03-04T15:56:24;3.60;99.90
7143;DHT22;3613;48.902;9.204;2023-03-04T15:59:22;3.60;99.90
7143;DHT22;3613;48.902;9.204;2023-03-04T16:01:49;3.50;99.90
7143;DHT22;3613;48.902;9.204;2023-03-04T16:04:17;3.40;99.90
7143;DHT22;3613;48.902;9.204;2023-03-04T16:06:47;3.40;99.90
7143;DHT22;3613;48.902;9.204;2023-03-04T16:09:15;3.40;99.90
7143;DHT22;3613;48.902;9.204;2023-03-04T16:11:44;3.50;99.90
7143;DHT22;3613;48.902;9.204;2023-03-04T16:14:15;3.60;99.90
7143;DHT22;3613;48.902;9.204;2023-03-04T16:16:41;3.60;99.90
7143;DHT22;3613;48.902;9.204;2023-03-04T16:19:10;3.60;99.90
7143;DHT22;3613;48.902;9.204;2023-03-04T16:21:36;3.60;99.90
7143;DHT22;3613;48.902;9.204;2023-03-04T16:24:02;3.60;99.90
7143;DHT22;3613;48.902;9.204;2023-03-04T16:26:29;3.50;99.90
7143;DHT22;3613;48.902;9.204;2023-03-04T16:28:55;3.50;99.90
7143;DHT22;3613;48.902;9.204;2023-03-04T16:31:23;3.50;99.90
7143;DHT22;3613;48.902;9.204;2023-03-04T16:34:07;3.50;99.90
7143;DHT22;3613;48.902;9.204;2023-03-04T16:36:34;3.50;99.90
7143;DHT22;3613;48.902;9.204;2023-03-04T16:39:10;3.50;99.90
7143;DHT22;3613;48.902;9.204;2023-03-04T16:41:40;3.50;99.90
7143;DHT22;3613;48.902;9.204;2023-03-04T16:44:09;3.60;99.90
7143;DHT22;3613;48.902;9.204;2023-03-04T16:46:38;3.50;99.90
7143;DHT22;3613;48.902;9.204;2023-03-04T16:49:06;3.50;99.90
7143;DHT22;3613;48.902;9.204;2023-03-04T16:51:38;3.50;99.90
7143;DHT22;3613;48.902;9.204;2023-03-04T16:54:06;3.40;99.90
7143;DHT22;3613;48.902;9.204;2023-03-04T16:56:32;3.50;99.90
7143;DHT22;3613;48.902;9.204;2023-03-04T16:58:58;3.40;99.90
7143;DHT22;3613;48.902;9.204;2023-03-04T17:01:27;2.50;99.90
7143;DHT22;3613;48.902;9.204;2023-03-04T17:03:56;3.40;99.90
7143;DHT22;3613;48.902;9.204;2023-03-04T17:06:24;3.40;99.90
7143;DHT22;3613;48.902;9.204;2023-03-04T17:08:52;3.40;99.90
7143;DHT22;3613;48.902;9.204;2023-03-04T17:11:20;3.40;99.90
7143;DHT22;3613;48.902;9.204;2023-03-04T17:13:49;3.40;99.90
7143;DHT22;3613;48.902;9.204;2023-03-04T17:16:14;3.40;99.90
7143;DHT22;3613;48.902;9.204;2023-03-04T17:18:40;3.40;99.90
7143;DHT22;3613;48.902;9.204;2023-03-04T17:21:12;3.40;99.90
7143;DHT22;3613;48.902;9.204;2023-03-04T17:23:38;3.40;99.90
7143;DHT22;3613;48.902;9.204;2023-03-04T17:26:04;3.40;99.90
7143;DHT22;3613;48.902;9.204;2023-03-04T17:28:30;3.40;99.90
7143;DHT22;3613;48.902;9.204;2023-03-04T17:31:01;3.40;99.90
7143;DHT22;3613;48.902;9.204;2023-03-04T17:33:32;3.40;99.90
7143;DHT22;3613;48.902;9.204;2023-03-04T17:35:59;3.40;99.90
7143;DHT22;3613;48.902;9.204;2023-03-04T17:38:27;3.40;99.90
7143;DHT22;3613;48.902;9.204;2023-03-04T17:41:03;3.40;99.90
7143;DHT22;3613;48.902;9.204;2023-03-04T17:43:32;3.40;99.90
7143;DHT22;3613;48.902;9.204;2023-03-04T17:46:06;3.40;99.90
7143;DHT22;3613;48.902;9.204;2023-03-04T17:48:33;3.40;99.90
7143;DHT22;3613;48.902;9.204;2023-03-04T17:50:59;3.40;99.90
7143;DHT22;3613;48.902;9.204;2023-03-04T17:53:25;3.40;99.90
7143;DHT22;3613;48.902;9.204;2023-03-04T17:55:53;3.40;99.90
7143;DHT22;3613;48.902;9.204;2023-03-04T17:58:19;3.40;99.90
7143;DHT22;3613;48.902;9.204;2023-03-04T18:00:46;3.40;99.90
7143;DHT22;3613;48.902;9.204;2023-03-04T18:03:16;4.20;99.90
7143;DHT22;3613;48.902;9.204;2023-03-04T18:05:42;3.40;99.90
7143;DHT22;3613;48.902;9.204;2023-03-04T18:08:08;3.50;99.90
7143;DHT22;3613;48.902;9.204;2023-03-04T18:10:33;4.20;99.90
7143;DHT22;3613;48.902;9.204;2023-03-04T18:13:01;3.50;99.90
7143;DHT22;3613;48.902;9.204;2023-03-04T18:15:29;3.40;99.90
7143;DHT22;3613;48.902;9.204;2023-03-04T18:17:55;3.40;99.90
7143;DHT22;3613;48.902;9.204;2023-03-04T18:20:21;3.40;99.90
7143;DHT22;3613;48.902;9.204;2023-03-04T18:22:46;3.40;99.90
7143;DHT22;3613;48.902;9.204;2023-03-04T18:25:14;3.40;99.90
7143;DHT22;3613;48.902;9.204;2023-03-04T18:27:41;3.40;99.90
7143;DHT22;3613;48.902;9.204;2023-03-04T18:30:14;3.40;99.90
7143;DHT22;3613;48.902;9.204;2023-03-04T18:32:45;3.40;99.90